createdAt,value
2022-10-17T00:01:20.157Z,13.00
2022-10-17T00:03:48.820Z,12.93
2022-10-17T00:06:17.617Z,12.91
2022-10-17T00:08:46.578Z,12.95
2022-10-17T00:11:17.607Z,12.94
2022-10-17T00:13:48.469Z,12.89
2022-10-17T00:16:25.924Z,12.81
2022-10-17T00:18:55.135Z,12.72
2022-10-17T00:21:25.270Z,12.63
2022-10-17T00:23:54.972Z,12.60
2022-10-17T00:26:23.990Z,12.69
2022-10-17T00:28:53.831Z,12.75
2022-10-17T00:31:25.853Z,12.72
2022-10-17T00:33:54.585Z,12.77
2022-10-17T00:36:25.868Z,12.77
2022-10-17T00:38:59.324Z,12.77
2022-10-17T00:41:31.071Z,12.76
2022-10-17T00:44:03.322Z,12.71
2022-10-17T00:46:35.074Z,12.55
2022-10-17T00:49:07.674Z,12.53
2022-10-17T00:51:42.130Z,12.45
2022-10-17T00:54:12.564Z,12.29
2022-10-17T00:56:41.410Z,12.20
2022-10-17T00:59:13.046Z,12.09
2022-10-17T01:01:45.763Z,11.99
2022-10-17T01:04:15.563Z,11.89
2022-10-17T01:06:44.194Z,11.79
2022-10-17T01:09:12.833Z,11.71
2022-10-17T01:11:51.963Z,11.70
2022-10-17T01:14:33.827Z,11.72
2022-10-17T01:17:12.164Z,11.72
2022-10-17T01:20:16.294Z,11.67
2022-10-17T01:23:00.041Z,11.58
2022-10-17T01:25:44.814Z,11.61
2022-10-17T01:28:40.965Z,11.60
2022-10-17T01:31:15.779Z,11.62
2022-10-17T01:33:59.767Z,11.61
2022-10-17T01:36:40.464Z,11.53
2022-10-17T01:39:21.381Z,11.50
2022-10-17T01:42:02.550Z,11.43
2022-10-17T01:44:43.659Z,11.48
2022-10-17T01:47:18.883Z,11.44
2022-10-17T01:49:51.267Z,11.41
2022-10-17T01:52:24.302Z,11.33
2022-10-17T01:54:56.905Z,11.25
2022-10-17T01:57:32.412Z,11.20
2022-10-17T02:00:06.331Z,11.18
2022-10-17T02:02:45.131Z,11.21
2022-10-17T02:05:14.363Z,11.19
2022-10-17T02:07:43.269Z,11.16
2022-10-17T02:10:20.525Z,11.11
2022-10-17T02:12:59.510Z,11.10
2022-10-17T02:16:00.094Z,11.00
2022-10-17T02:18:45.967Z,11.14
2022-10-17T02:21:25.670Z,11.18
2022-10-17T02:24:06.174Z,11.32
2022-10-17T02:26:41.668Z,11.36
2022-10-17T02:29:16.700Z,11.38
2022-10-17T02:31:53.131Z,11.33
2022-10-17T02:34:31.279Z,11.37
2022-10-17T02:37:01.621Z,11.28
2022-10-17T02:39:32.708Z,11.19
2022-10-17T02:42:07.010Z,11.04
2022-10-17T02:44:38.230Z,11.04
2022-10-17T02:47:19.260Z,10.98
2022-10-17T02:49:54.039Z,10.94
2022-10-17T02:52:36.329Z,10.90
2022-10-17T02:55:14.998Z,10.97
2022-10-17T02:57:50.261Z,11.19
2022-10-17T03:00:20.994Z,11.24
2022-10-17T03:02:51.371Z,11.30
2022-10-17T03:05:23.491Z,11.36
2022-10-17T03:07:51.876Z,11.32
2022-10-17T03:10:21.433Z,11.32
2022-10-17T03:12:50.268Z,11.33
2022-10-17T03:15:19.038Z,11.29
2022-10-17T03:17:47.447Z,11.19
2022-10-17T03:20:15.831Z,11.09
2022-10-17T03:22:45.499Z,11.07
2022-10-17T03:25:13.905Z,11.07
2022-10-17T03:27:42.636Z,11.18
2022-10-17T03:30:12.190Z,11.13
2022-10-17T03:32:41.068Z,11.03
2022-10-17T03:35:14.816Z,11.03
2022-10-17T03:37:47.792Z,10.93
2022-10-17T03:40:17.574Z,10.84
2022-10-17T03:42:46.283Z,10.69
2022-10-17T03:45:15.634Z,10.52
2022-10-17T03:47:44.137Z,10.40
2022-10-17T03:50:12.843Z,10.33
2022-10-17T03:52:42.304Z,10.36
2022-10-17T03:55:12.239Z,10.34
2022-10-17T03:57:43.420Z,10.36
2022-10-17T04:00:16.018Z,10.54
2022-10-17T04:02:50.897Z,10.72
2022-10-17T04:05:21.000Z,10.71
2022-10-17T04:07:50.070Z,10.75
2022-10-17T04:10:23.482Z,10.68
2022-10-17T04:12:52.973Z,10.59
2022-10-17T04:15:21.433Z,10.50
2022-10-17T04:17:50.095Z,10.41
2022-10-17T04:20:18.813Z,10.34
2022-10-17T04:22:47.988Z,10.30
2022-10-17T04:25:16.649Z,10.40
2022-10-17T04:27:49.058Z,10.62
2022-10-17T04:30:18.294Z,10.68
2022-10-17T04:32:47.626Z,10.63
2022-10-17T04:35:21.951Z,10.57
2022-10-17T04:37:58.121Z,10.62
2022-10-17T04:40:27.391Z,10.64
2022-10-17T04:42:58.208Z,10.58
2022-10-17T04:45:36.424Z,10.51
2022-10-17T04:48:07.379Z,10.48
2022-10-17T04:50:35.853Z,10.42
2022-10-17T04:53:23.288Z,10.33
2022-10-17T04:55:52.452Z,10.37
2022-10-17T04:58:22.211Z,10.34
2022-10-17T05:00:52.033Z,10.39
2022-10-17T05:03:24.389Z,10.32
2022-10-17T05:05:53.344Z,10.18
2022-10-17T05:08:22.065Z,10.19
2022-10-17T05:10:52.169Z,10.18
2022-10-17T05:13:22.450Z,10.20
2022-10-17T05:15:50.849Z,10.21
2022-10-17T05:18:19.610Z,10.24
2022-10-17T05:20:48.698Z,10.16
2022-10-17T05:23:17.042Z,10.13
2022-10-17T05:25:46.276Z,10.03
2022-10-17T05:28:14.929Z,9.94
2022-10-17T05:30:46.265Z,9.77
2022-10-17T05:33:14.947Z,9.71
2022-10-17T05:35:43.775Z,9.69
2022-10-17T05:38:12.565Z,9.72
2022-10-17T05:40:43.418Z,10.00
2022-10-17T05:43:12.135Z,10.15
2022-10-17T05:45:40.753Z,10.24
2022-10-17T05:48:14.993Z,10.33
2022-10-17T05:50:43.318Z,10.44
2022-10-17T05:53:18.445Z,10.41
2022-10-17T05:55:57.935Z,10.38
2022-10-17T06:01:28.221Z,10.13
2022-10-17T06:03:58.733Z,10.02
2022-10-17T06:06:27.201Z,9.90
2022-10-17T06:08:55.953Z,9.77
2022-10-17T06:11:30.168Z,9.72
2022-10-17T06:13:58.908Z,9.75
2022-10-17T06:16:30.129Z,9.74
2022-10-17T06:18:59.901Z,9.76
2022-10-17T06:21:29.665Z,9.83
2022-10-17T06:24:08.924Z,9.91
2022-10-17T06:26:39.547Z,10.05
2022-10-17T06:29:09.831Z,10.29
2022-10-17T06:31:44.806Z,10.63
2022-10-17T06:34:14.759Z,10.97
2022-10-17T06:36:43.548Z,11.35
2022-10-17T06:39:13.282Z,11.70
2022-10-17T06:41:51.070Z,12.00
2022-10-17T06:44:22.727Z,12.29
2022-10-17T06:47:10.845Z,12.80
2022-10-17T06:49:40.875Z,13.41
2022-10-17T06:52:29.767Z,13.94
2022-10-17T06:55:36.370Z,14.44
2022-10-17T06:58:27.068Z,14.60
2022-10-17T07:01:14.728Z,15.12
2022-10-17T07:03:44.926Z,15.16
2022-10-17T07:06:15.352Z,14.99
2022-10-17T07:08:45.881Z,15.23
2022-10-17T07:11:19.146Z,15.53
2022-10-17T07:13:48.385Z,15.91
2022-10-17T07:16:18.052Z,16.46
2022-10-17T07:18:51.257Z,16.63
2022-10-17T07:21:22.354Z,16.72
2022-10-17T07:23:50.714Z,16.38
2022-10-17T07:26:20.079Z,15.56
2022-10-17T07:28:56.139Z,14.99
2022-10-17T07:31:33.105Z,14.47
2022-10-17T07:34:02.062Z,14.29
2022-10-17T07:36:31.814Z,14.29
2022-10-17T07:39:02.962Z,14.12
2022-10-17T07:41:32.901Z,14.16
2022-10-17T07:44:01.659Z,14.20
2022-10-17T07:46:35.601Z,14.32
2022-10-17T07:49:04.250Z,14.41
2022-10-17T07:51:34.620Z,14.48
2022-10-17T07:54:02.976Z,14.33
2022-10-17T07:56:31.555Z,14.35
2022-10-17T07:59:02.623Z,14.45
2022-10-17T08:01:33.821Z,14.54
2022-10-17T08:04:02.458Z,14.66
2022-10-17T08:06:31.052Z,14.60
2022-10-17T08:09:01.659Z,14.70
2022-10-17T08:11:30.291Z,14.92
2022-10-17T08:13:58.566Z,14.97
2022-10-17T08:16:26.892Z,14.87
2022-10-17T08:18:55.574Z,14.92
2022-10-17T08:21:24.124Z,15.04
2022-10-17T08:23:52.408Z,14.98
2022-10-17T08:26:22.364Z,14.98
2022-10-17T08:28:51.169Z,15.10
2022-10-17T08:31:21.694Z,14.80
2022-10-17T08:33:51.808Z,14.57
2022-10-17T08:36:21.959Z,14.40
2022-10-17T08:38:52.955Z,14.35
2022-10-17T08:41:44.444Z,14.30
2022-10-17T08:44:30.992Z,14.40
2022-10-17T08:47:06.983Z,14.67
2022-10-17T08:49:47.007Z,14.74
2022-10-17T08:52:21.783Z,14.71
2022-10-17T08:54:51.937Z,14.89
2022-10-17T08:57:21.751Z,14.82
2022-10-17T08:59:53.718Z,14.72
2022-10-17T09:02:55.401Z,14.63
2022-10-17T09:05:38.431Z,14.60
2022-10-17T09:08:32.161Z,14.77
2022-10-17T09:11:10.828Z,14.99
2022-10-17T09:14:05.124Z,15.27
2022-10-17T09:17:04.266Z,14.98
2022-10-17T09:19:38.760Z,14.72
2022-10-17T09:22:14.410Z,15.02
2022-10-17T09:24:47.315Z,15.51
2022-10-17T09:27:26.330Z,15.19
2022-10-17T09:30:26.982Z,14.63
2022-10-17T09:33:03.064Z,14.71
2022-10-17T09:35:31.809Z,14.72
2022-10-17T09:38:00.491Z,14.70
2022-10-17T09:40:34.214Z,15.19
2022-10-17T09:43:07.957Z,15.51
2022-10-17T09:45:47.418Z,15.70
2022-10-17T09:48:26.027Z,15.62
2022-10-17T09:51:14.821Z,15.85
2022-10-17T09:53:51.408Z,15.80
2022-10-17T09:56:21.221Z,16.06
2022-10-17T09:58:52.837Z,16.14
2022-10-17T10:01:26.218Z,16.87
2022-10-17T10:04:10.701Z,19.05
2022-10-17T10:06:39.991Z,19.95
2022-10-17T10:09:26.955Z,20.50
2022-10-17T10:11:58.216Z,21.08
2022-10-17T10:14:33.582Z,22.43
2022-10-17T10:17:05.903Z,22.54
2022-10-17T10:19:38.090Z,22.93
2022-10-17T10:22:15.699Z,23.17
2022-10-17T10:24:44.512Z,23.58
2022-10-17T10:27:17.781Z,23.54
2022-10-17T10:29:53.912Z,23.66
2022-10-17T10:32:28.161Z,24.15
2022-10-17T10:35:02.066Z,23.43
2022-10-17T10:37:38.634Z,24.00
2022-10-17T10:40:19.012Z,24.70
2022-10-17T10:42:51.851Z,24.40
2022-10-17T10:48:22.771Z,24.93
2022-10-17T10:50:55.709Z,25.39
2022-10-17T10:53:37.208Z,25.35
2022-10-17T10:56:17.141Z,25.87
2022-10-17T10:58:56.973Z,25.30
2022-10-17T11:01:35.357Z,24.96
2022-10-17T11:04:22.860Z,24.63
2022-10-17T11:06:59.448Z,25.58
2022-10-17T11:09:46.180Z,25.38
2022-10-17T11:12:21.847Z,25.16
2022-10-17T11:14:58.706Z,25.80
2022-10-17T11:17:39.708Z,25.16
2022-10-17T11:20:23.296Z,24.19
2022-10-17T11:23:01.496Z,24.00
2022-10-17T11:25:34.884Z,23.72
2022-10-17T11:28:05.309Z,23.51
2022-10-17T11:30:47.170Z,23.41
2022-10-17T11:33:25.202Z,22.74
2022-10-17T11:36:02.309Z,22.66
2022-10-17T11:38:45.798Z,22.44
2022-10-17T11:41:23.184Z,22.91
2022-10-17T11:43:59.266Z,23.54
2022-10-17T11:46:30.149Z,23.42
2022-10-17T11:49:14.042Z,22.76
2022-10-17T11:52:07.469Z,22.84
2022-10-17T11:54:43.897Z,23.35
2022-10-17T11:57:43.297Z,23.29
2022-10-17T12:00:26.201Z,22.64
2022-10-17T12:03:13.661Z,22.64
2022-10-17T12:05:53.648Z,23.33
2022-10-17T12:08:37.614Z,22.93
2022-10-17T12:11:15.317Z,22.93
2022-10-17T12:13:56.399Z,23.20
2022-10-17T12:16:46.770Z,24.04
2022-10-17T12:19:34.154Z,23.83
2022-10-17T12:22:22.744Z,25.09
2022-10-17T12:25:02.642Z,25.24
2022-10-17T12:27:45.787Z,24.88
2022-10-17T12:30:26.993Z,24.26
2022-10-17T12:33:07.156Z,24.30
2022-10-17T12:35:39.189Z,24.14
2022-10-17T12:38:22.915Z,23.82
2022-10-17T12:41:04.322Z,24.22
2022-10-17T12:43:54.086Z,24.95
2022-10-17T12:46:52.009Z,24.69
2022-10-17T12:49:41.609Z,23.92
2022-10-17T12:53:05.014Z,25.14
2022-10-17T12:55:34.289Z,25.78
2022-10-17T12:58:08.149Z,25.92
2022-10-17T13:00:59.419Z,25.72
2022-10-17T13:03:35.902Z,25.84
2022-10-17T13:06:08.601Z,26.57
2022-10-17T13:08:44.341Z,26.48
2022-10-17T13:11:15.294Z,26.30
2022-10-17T13:13:49.289Z,26.55
2022-10-17T13:16:30.611Z,25.33
2022-10-17T13:18:59.610Z,25.83
2022-10-17T13:21:29.304Z,24.93
2022-10-17T13:23:57.793Z,24.84
2022-10-17T13:26:29.165Z,25.20
2022-10-17T13:31:39.583Z,25.58
2022-10-17T13:34:17.492Z,26.18
2022-10-17T13:36:49.407Z,26.53
2022-10-17T13:39:38.329Z,26.31
2022-10-17T13:42:22.710Z,25.39
2022-10-17T13:44:53.141Z,25.19
2022-10-17T13:47:28.018Z,23.96
2022-10-17T13:49:57.803Z,24.14
2022-10-17T13:52:30.840Z,25.70
2022-10-17T13:55:11.773Z,26.97
2022-10-17T13:57:42.075Z,27.23
2022-10-17T14:00:21.214Z,27.38
2022-10-17T14:02:49.732Z,27.58
2022-10-17T14:05:20.813Z,27.73
2022-10-17T14:10:45.308Z,27.96
2022-10-17T14:13:23.695Z,27.16
2022-10-17T14:15:55.865Z,27.14
2022-10-17T14:18:34.884Z,27.28
2022-10-17T14:24:14.539Z,25.74
2022-10-17T14:26:49.948Z,26.82
2022-10-17T14:29:26.505Z,27.59
2022-10-17T14:32:08.613Z,27.55
2022-10-17T14:34:40.525Z,27.85
2022-10-17T14:37:26.144Z,27.13
2022-10-17T14:39:56.125Z,27.29
2022-10-17T14:42:25.286Z,27.54
2022-10-17T14:44:58.553Z,26.86
2022-10-17T14:47:44.804Z,26.65
2022-10-17T14:50:25.737Z,26.40
2022-10-17T14:53:04.111Z,26.04
2022-10-17T14:55:36.711Z,25.55
2022-10-17T14:58:18.673Z,25.12
2022-10-17T15:00:47.042Z,24.88
2022-10-17T15:03:19.265Z,24.66
2022-10-17T15:05:48.239Z,24.60
2022-10-17T15:08:18.669Z,24.73
2022-10-17T15:10:49.362Z,24.92
2022-10-17T15:13:40.954Z,24.71
2022-10-17T15:16:18.029Z,24.23
2022-10-17T15:18:48.480Z,24.22
2022-10-17T15:21:33.323Z,24.05
2022-10-17T15:24:07.394Z,23.93
2022-10-17T15:26:36.408Z,23.39
2022-10-17T15:29:05.627Z,23.19
2022-10-17T15:31:35.335Z,22.68
2022-10-17T15:34:05.360Z,22.38
2022-10-17T15:36:40.132Z,22.03
2022-10-17T15:39:09.188Z,21.29
2022-10-17T15:41:37.980Z,20.87
2022-10-17T15:44:06.774Z,20.19
2022-10-17T15:46:37.137Z,19.35
2022-10-17T15:49:08.708Z,18.74
2022-10-17T15:51:37.444Z,18.01
2022-10-17T15:54:06.716Z,17.30
2022-10-17T15:56:39.489Z,17.17
2022-10-17T15:59:13.759Z,17.06
2022-10-17T16:01:43.607Z,16.88
2022-10-17T16:04:15.579Z,16.55
2022-10-17T16:06:44.355Z,16.30
2022-10-17T16:09:13.668Z,16.12
2022-10-17T16:11:45.529Z,16.07
2022-10-17T16:14:18.306Z,15.93
2022-10-17T16:16:46.732Z,15.78
2022-10-17T16:19:16.999Z,15.61
2022-10-17T16:21:46.052Z,15.33
2022-10-17T16:24:14.945Z,15.18
2022-10-17T16:26:43.531Z,15.18
2022-10-17T16:29:12.362Z,15.21
2022-10-17T16:31:44.839Z,15.20
2022-10-17T16:34:16.948Z,15.17
2022-10-17T16:36:45.659Z,15.13
2022-10-17T16:39:14.536Z,14.94
2022-10-17T16:41:43.289Z,14.83
2022-10-17T16:44:16.504Z,14.74
2022-10-17T16:46:45.222Z,14.63
2022-10-17T16:49:16.092Z,14.49
2022-10-17T16:51:46.215Z,14.39
2022-10-17T16:54:14.689Z,14.30
2022-10-17T16:56:43.402Z,14.18
2022-10-17T16:59:12.813Z,14.12
2022-10-17T17:01:41.762Z,14.18
2022-10-17T17:04:10.531Z,14.24
2022-10-17T17:06:39.286Z,14.18
2022-10-17T17:09:09.765Z,14.23
2022-10-17T17:11:39.215Z,14.23
2022-10-17T17:14:10.373Z,14.14
2022-10-17T17:16:39.140Z,14.16
2022-10-17T17:19:11.733Z,14.15
2022-10-17T17:21:43.127Z,14.17
2022-10-17T17:24:12.902Z,14.18
2022-10-17T17:26:42.085Z,14.22
2022-10-17T17:29:11.927Z,14.23
2022-10-17T17:31:40.701Z,14.22
2022-10-17T17:34:10.310Z,14.18
2022-10-17T17:36:41.463Z,14.14
2022-10-17T17:39:14.614Z,14.09
2022-10-17T17:41:44.557Z,14.07
2022-10-17T17:44:16.771Z,14.12
2022-10-17T17:46:46.341Z,14.05
2022-10-17T17:49:15.514Z,13.86
2022-10-17T17:51:46.622Z,13.78
2022-10-17T17:54:17.022Z,13.68
2022-10-17T17:56:45.800Z,13.53
2022-10-17T17:59:14.843Z,13.53
2022-10-17T18:01:44.014Z,13.58
2022-10-17T18:04:13.477Z,13.65
2022-10-17T18:06:41.981Z,13.64
2022-10-17T18:09:11.050Z,13.54
2022-10-17T18:11:41.931Z,13.42
2022-10-17T18:14:14.391Z,13.30
2022-10-17T18:16:43.296Z,13.27
2022-10-17T18:19:12.982Z,13.23
2022-10-17T18:21:41.759Z,13.26
2022-10-17T18:24:10.325Z,13.39
2022-10-17T18:26:40.492Z,13.44
2022-10-17T18:29:09.181Z,13.38
2022-10-17T18:31:37.778Z,13.40
2022-10-17T18:34:07.072Z,13.27
2022-10-17T18:36:37.618Z,13.18
2022-10-17T18:39:06.950Z,13.08
2022-10-17T18:41:35.869Z,12.95
2022-10-17T18:44:06.037Z,12.91
2022-10-17T18:46:40.947Z,13.04
2022-10-17T18:49:15.281Z,13.14
2022-10-17T18:51:44.104Z,13.19
2022-10-17T18:54:16.788Z,13.33
2022-10-17T18:56:45.399Z,13.27
2022-10-17T18:59:15.090Z,13.01
2022-10-17T19:01:44.661Z,12.70
2022-10-17T19:04:13.784Z,12.57
2022-10-17T19:06:44.721Z,12.70
2022-10-17T19:09:15.094Z,12.84
2022-10-17T19:11:43.971Z,12.90
2022-10-17T19:14:14.940Z,12.97
2022-10-17T19:16:49.430Z,12.97
2022-10-17T19:19:20.106Z,12.84
2022-10-17T19:21:49.308Z,12.72
2022-10-17T19:24:19.715Z,12.57
2022-10-17T19:26:50.597Z,12.45
2022-10-17T19:29:21.541Z,12.35
2022-10-17T19:31:50.770Z,12.17
2022-10-17T19:34:19.987Z,12.12
2022-10-17T19:36:48.883Z,12.16
2022-10-17T19:39:19.502Z,12.22
2022-10-17T19:41:49.474Z,12.26
2022-10-17T19:44:19.788Z,12.35
2022-10-17T19:46:49.251Z,12.54
2022-10-17T19:49:18.733Z,12.57
2022-10-17T19:51:47.561Z,12.62
2022-10-17T19:54:18.262Z,12.65
2022-10-17T19:56:47.203Z,12.69
2022-10-17T19:59:18.141Z,12.68
2022-10-17T20:01:47.996Z,12.60
2022-10-17T20:04:16.388Z,12.69
2022-10-17T20:06:44.707Z,12.69
2022-10-17T20:09:16.900Z,12.76
2022-10-17T20:11:46.145Z,12.71
2022-10-17T20:14:14.812Z,12.76
2022-10-17T20:16:44.766Z,12.78
2022-10-17T20:19:14.930Z,12.67
2022-10-17T20:21:44.584Z,12.60
2022-10-17T20:24:16.796Z,12.52
2022-10-17T20:26:46.444Z,12.45
2022-10-17T20:29:19.160Z,12.37
2022-10-17T20:31:48.958Z,12.32
2022-10-17T20:34:20.219Z,12.40
2022-10-17T20:36:49.464Z,12.20
2022-10-17T20:39:20.383Z,12.07
2022-10-17T20:41:49.013Z,11.87
2022-10-17T20:44:17.641Z,11.64
2022-10-17T20:47:00.689Z,11.51
2022-10-17T20:49:33.084Z,11.48
2022-10-17T20:52:02.298Z,11.56
2022-10-17T20:54:31.081Z,11.55
2022-10-17T20:57:02.483Z,11.56
2022-10-17T20:59:34.356Z,11.55
2022-10-17T21:02:03.257Z,11.56
2022-10-17T21:04:46.032Z,11.59
2022-10-17T21:07:15.835Z,11.68
2022-10-17T21:09:46.275Z,11.70
2022-10-17T21:12:21.747Z,11.69
2022-10-17T21:14:59.861Z,11.74
2022-10-17T21:17:28.183Z,11.71
2022-10-17T21:19:57.876Z,11.68
2022-10-17T21:22:27.099Z,11.65
2022-10-17T21:24:55.963Z,11.64
2022-10-17T21:27:24.558Z,11.70
2022-10-17T21:29:53.198Z,11.74
2022-10-17T21:32:40.120Z,11.70
2022-10-17T21:35:11.540Z,11.62
2022-10-17T21:37:40.130Z,11.59
2022-10-17T21:40:10.328Z,11.58
2022-10-17T21:42:38.925Z,11.58
2022-10-17T21:45:15.154Z,11.50
2022-10-17T21:48:11.079Z,11.40
2022-10-17T21:50:34.908Z,11.26
2022-10-17T21:53:03.498Z,11.23
2022-10-17T21:55:32.258Z,11.16
2022-10-17T21:58:00.537Z,11.19
2022-10-17T22:00:29.162Z,11.07
2022-10-17T22:02:57.790Z,10.98
2022-10-17T22:05:26.438Z,10.95
2022-10-17T22:07:56.065Z,10.96
2022-10-17T22:10:24.669Z,10.93
2022-10-17T22:12:53.008Z,10.96
2022-10-17T22:15:21.445Z,11.02
2022-10-17T22:17:50.038Z,11.08
2022-10-17T22:20:18.714Z,11.10
2022-10-17T22:22:47.556Z,11.06
2022-10-17T22:25:17.433Z,10.96
2022-10-17T22:27:46.051Z,10.80
2022-10-17T22:30:14.648Z,10.73
2022-10-17T22:32:42.948Z,10.64
2022-10-17T22:35:11.796Z,10.62
2022-10-17T22:37:40.350Z,10.66
2022-10-17T22:40:09.829Z,10.90
2022-10-17T22:42:39.413Z,10.84
2022-10-17T22:45:08.562Z,10.79
2022-10-17T22:47:37.143Z,10.76
2022-10-17T22:50:06.293Z,10.74
2022-10-17T22:52:34.887Z,10.66
2022-10-17T22:55:04.548Z,10.56
2022-10-17T22:57:33.274Z,10.52
2022-10-17T23:00:03.271Z,10.52
2022-10-17T23:02:32.663Z,10.55
2022-10-17T23:05:01.584Z,10.49
2022-10-17T23:07:30.226Z,10.52
2022-10-17T23:09:58.750Z,10.53
2022-10-17T23:12:27.584Z,10.48
2022-10-17T23:14:56.359Z,10.40
2022-10-17T23:17:26.424Z,10.39
2022-10-17T23:19:57.638Z,10.37
2022-10-17T23:22:26.445Z,10.33
2022-10-17T23:24:55.040Z,10.37
2022-10-17T23:27:23.294Z,10.39
2022-10-17T23:29:51.876Z,10.56
2022-10-17T23:32:21.110Z,10.68
2022-10-17T23:34:51.059Z,10.69
2022-10-17T23:37:20.021Z,10.48
2022-10-17T23:39:48.356Z,10.34
2022-10-17T23:42:16.623Z,10.17
2022-10-17T23:44:45.211Z,10.04
2022-10-17T23:47:13.814Z,9.99
2022-10-17T23:49:42.382Z,9.91
2022-10-17T23:52:12.227Z,9.81
2022-10-17T23:57:10.360Z,9.86
2022-10-17T23:59:39.009Z,9.97
